Time;durP1;ratioP1;P1;durP2;ratioP2;P2;SDS_P1;SDS_P2;PMS_P1;PMS_P2;Temp;Humidity;BMP_temperature;BMP_pressure;BME280_temperature;BME280_humidity;BME280_pressure;Samples;Min_cycle;Max_cycle;Signal;HPM_P1;HPM_P2
2023/01/20 00:00:18;;;;;;;44.33;32.23;;;;;;;0.47;100.00;100967.03;5254832;28;20071;-78
2023/01/20 00:02:50;;;;;;;42.57;31.30;;;;;;;0.46;100.00;100967.94;5252978;28;20033;-76
2023/01/20 00:05:21;;;;;;;44.43;32.30;;;;;;;0.41;100.00;100972.28;5234719;28;20033;-79
2023/01/20 00:07:52;;;;;;;41.13;31.43;;;;;;;0.43;100.00;100975.72;5249852;28;20100;-78
2023/01/20 00:10:24;;;;;;;45.60;31.93;;;;;;;0.45;100.00;100981.69;5257938;28;20017;-76
2023/01/20 00:12:55;;;;;;;41.47;29.43;;;;;;;0.40;100.00;100983.47;5256308;28;20031;-77
2023/01/20 00:15:26;;;;;;;46.20;34.13;;;;;;;0.41;100.00;100987.75;5244231;28;20029;-79
2023/01/20 00:17:58;;;;;;;45.60;31.07;;;;;;;0.38;100.00;100990.38;5240712;28;20021;-77
2023/01/20 00:20:29;;;;;;;44.57;30.67;;;;;;;0.37;100.00;100991.25;5251884;28;20136;-78
2023/01/20 00:23:00;;;;;;;44.53;31.33;;;;;;;0.34;100.00;100991.28;5252709;28;20017;-78
2023/01/20 00:25:34;;;;;;;46.63;33.33;;;;;;;0.40;100.00;100996.34;5253276;28;20608;-79
2023/01/20 00:28:06;;;;;;;44.40;31.25;;;;;;;0.34;100.00;100987.00;5253672;28;20033;-79
2023/01/20 00:30:37;;;;;;;45.10;30.17;;;;;;;0.35;100.00;100993.00;5253436;28;20593;-78
2023/01/20 00:33:08;;;;;;;43.20;31.07;;;;;;;0.38;100.00;100997.25;5239934;28;20370;-79
2023/01/20 00:35:40;;;;;;;43.00;28.60;;;;;;;0.30;100.00;100987.06;5230750;28;20112;-77
2023/01/20 00:38:11;;;;;;;44.40;30.20;;;;;;;0.34;100.00;101001.59;5232350;28;20025;-78
2023/01/20 00:40:42;;;;;;;45.67;30.37;;;;;;;0.35;100.00;100998.13;5248379;28;20109;-79
2023/01/20 00:43:13;;;;;;;42.80;30.13;;;;;;;0.40;100.00;101009.22;5232655;28;20032;-77
2023/01/20 00:45:45;;;;;;;44.67;29.30;;;;;;;0.35;100.00;101011.03;5243109;28;20029;-79
2023/01/20 00:48:16;;;;;;;46.10;29.77;;;;;;;0.13;100.00;101011.34;5251686;28;20025;-78
2023/01/20 00:50:48;;;;;;;49.23;32.30;;;;;;;0.29;100.00;101006.84;5237129;28;20660;-76
2023/01/20 00:53:19;;;;;;;45.20;31.57;;;;;;;0.33;100.00;101011.03;5253818;28;20048;-78
2023/01/20 00:55:50;;;;;;;48.10;32.53;;;;;;;0.31;100.00;101017.97;5244768;28;20433;-78
2023/01/20 00:58:22;;;;;;;52.07;32.30;;;;;;;0.39;100.00;101015.28;5253246;28;20044;-78
2023/01/20 01:00:54;;;;;;;46.20;32.20;;;;;;;0.40;100.00;101011.81;5220780;28;20475;-79
2023/01/20 01:03:28;;;;;;;48.03;33.17;;;;;;;0.38;100.00;101013.59;5250038;28;20025;-77
2023/01/20 01:06:08;;;;;;;49.70;31.88;;;;;;;0.41;100.00;101021.25;5255522;28;20030;-76
2023/01/20 01:08:40;;;;;;;51.27;33.87;;;;;;;0.33;100.00;101010.22;5236722;28;20095;-78
2023/01/20 01:11:12;;;;;;;45.93;32.63;;;;;;;0.31;100.00;101015.41;5245915;28;20116;-76
2023/01/20 01:13:43;;;;;;;48.87;32.83;;;;;;;0.31;100.00;101027.41;5255301;28;20115;-79
2023/01/20 01:16:15;;;;;;;47.43;30.57;;;;;;;0.27;100.00;101030.91;5253178;28;20057;-79
2023/01/20 01:18:46;;;;;;;47.77;31.73;;;;;;;0.28;100.00;101037.78;5242009;28;20028;-78
2023/01/20 01:21:17;;;;;;;47.47;31.17;;;;;;;0.22;100.00;101031.84;5252931;28;20052;-77
2023/01/20 01:23:51;;;;;;;46.93;33.00;;;;;;;0.27;100.00;101047.22;5251737;28;20033;-75
2023/01/20 01:26:22;;;;;;;44.70;29.43;;;;;;;0.25;100.00;101046.38;5250634;28;20048;-79
2023/01/20 01:28:54;;;;;;;48.70;29.87;;;;;;;0.26;100.00;101047.25;5235437;28;20033;-79
2023/01/20 01:31:25;;;;;;;48.40;29.93;;;;;;;0.30;100.00;101048.88;5252685;28;20040;-79
2023/01/20 01:33:56;;;;;;;47.13;29.97;;;;;;;0.27;100.00;101046.34;5250772;28;20066;-79
2023/01/20 01:36:27;;;;;;;46.73;30.80;;;;;;;0.22;100.00;101044.72;5251567;28;20037;-75
2023/01/20 01:38:59;;;;;;;44.70;28.73;;;;;;;0.22;100.00;101042.13;5239229;28;20048;-76
2023/01/20 01:41:33;;;;;;;45.23;28.77;;;;;;;0.26;100.00;101052.41;5255169;28;20086;-78
2023/01/20 01:44:09;;;;;;;47.20;29.38;;;;;;;0.22;100.00;101049.88;5252800;28;20686;-78
2023/01/20 01:46:41;;;;;;;42.27;28.27;;;;;;;0.15;100.00;101043.09;5256242;28;20067;-77
2023/01/20 01:49:26;;;;;;;45.37;29.47;;;;;;;0.13;100.00;101039.66;5258335;28;20017;-79
2023/01/20 01:52:04;;;;;;;45.40;28.30;;;;;;;0.18;100.00;101043.03;5258336;28;20021;-79
2023/01/20 01:54:41;;;;;;;47.57;29.87;;;;;;;0.26;100.00;101060.13;5245777;28;20024;-78
2023/01/20 01:57:12;;;;;;;48.77;31.70;;;;;;;0.18;100.00;101048.19;5255605;28;20064;-74
2023/01/20 01:59:44;;;;;;;48.90;31.17;;;;;;;0.22;100.00;101043.84;5256986;28;20041;-79
2023/01/20 02:02:15;;;;;;;52.47;31.53;;;;;;;0.22;100.00;101049.88;5246525;28;20048;-77
2023/01/20 02:04:47;;;;;;;53.33;30.33;;;;;;;0.16;100.00;101029.31;5255796;28;20025;-79
2023/01/20 02:07:20;;;;;;;49.47;28.07;;;;;;;0.24;100.00;101048.09;5255373;28;20067;-78
2023/01/20 02:09:51;;;;;;;52.37;30.80;;;;;;;0.21;100.00;101048.13;5256533;28;20025;-78
2023/01/20 02:12:23;;;;;;;47.97;30.80;;;;;;;0.30;100.00;101061.75;5301799;22;20113;-77
2023/01/20 02:14:58;;;;;;;51.23;29.17;;;;;;;0.32;100.00;101053.16;5275533;28;20039;-74
2023/01/20 02:18:45;;;;;;;51.10;29.70;;;;;;;-150.27;100.00;61272.81;5270516;28;20033;-72
2023/01/20 02:22:31;;;;;;;49.22;28.98;;;;;;;-150.27;100.00;61272.81;5271354;28;20040;-77
2023/01/20 02:26:24;;;;;;;54.88;31.90;;;;;;;-150.27;100.00;61272.81;5262683;28;20502;-73
2023/01/20 02:29:59;;;;;;;44.67;29.17;;;;;;;-150.27;100.00;61272.81;5274588;28;20051;-78
2023/01/20 02:33:34;;;;;;;51.57;29.73;;;;;;;-150.27;100.00;61272.81;5273705;28;20490;-77
2023/01/20 02:37:20;;;;;;;45.97;27.00;;;;;;;-150.27;100.00;61272.81;5276835;28;20024;-78
2023/01/20 02:41:09;;;;;;;47.10;26.67;;;;;;;-150.27;100.00;61272.81;5259938;28;20025;-78
2023/01/20 02:44:51;;;;;;;49.07;27.90;;;;;;;-150.27;100.00;61272.81;5255406;28;20033;-78
2023/01/20 02:48:23;;;;;;;46.90;25.30;;;;;;;-150.27;100.00;61272.81;5274476;28;20033;-74
2023/01/20 02:52:35;;;;;;;46.17;26.83;;;;;;;-150.27;100.00;61272.81;5275234;28;20021;-78
2023/01/20 02:56:07;;;;;;;54.17;29.33;;;;;;;-150.27;100.00;61272.81;5210136;28;20041;-74
2023/01/20 02:59:42;;;;;;;46.77;27.63;;;;;;;-150.27;100.00;61272.81;5227857;28;20747;-75
2023/01/20 03:03:21;;;;;;;45.20;27.90;;;;;;;-150.27;100.00;61272.81;5254600;28;20096;-78
2023/01/20 03:06:55;;;;;;;45.33;28.43;;;;;;;-150.27;100.00;61272.81;5254695;28;20033;-78
2023/01/20 03:10:31;;;;;;;43.57;26.67;;;;;;;-150.27;100.00;61272.81;5251126;28;20090;-79
2023/01/20 03:14:11;;;;;;;49.45;29.33;;;;;;;-150.27;100.00;61272.81;5250764;28;20406;-75
2023/01/20 03:17:41;;;;;;;47.50;27.17;;;;;;;-150.27;100.00;61272.81;5254934;28;20438;-78
2023/01/20 03:21:12;;;;;;;44.83;27.40;;;;;;;-150.27;100.00;61272.81;5254472;28;20032;-76
2023/01/20 03:24:45;;;;;;;48.03;25.90;;;;;;;-150.27;100.00;61272.81;5254232;28;20036;-77
2023/01/20 03:28:15;;;;;;;47.03;26.67;;;;;;;-150.27;100.00;61272.81;5254550;28;20029;-74
2023/01/20 03:31:49;;;;;;;45.83;25.80;;;;;;;-150.27;100.00;61272.81;5255570;28;20024;-79
2023/01/20 03:35:20;;;;;;;45.73;26.37;;;;;;;-150.27;100.00;61272.81;5254364;28;20033;-78
2023/01/20 03:38:50;;;;;;;43.03;25.43;;;;;;;-150.27;100.00;61272.81;5255112;28;20530;-79
2023/01/20 03:42:28;;;;;;;45.20;26.83;;;;;;;-150.27;100.00;61272.81;5254487;28;20679;-79
2023/01/20 03:46:08;;;;;;;44.03;26.53;;;;;;;-150.27;100.00;61272.81;5255864;28;20048;-77
2023/01/20 03:49:47;;;;;;;50.23;27.67;;;;;;;-150.27;100.00;61272.81;5270704;28;20028;-77
2023/01/20 03:53:44;;;;;;;48.30;30.30;;;;;;;-150.27;100.00;61272.81;5264269;28;20107;-79
2023/01/20 03:57:33;;;;;;;55.77;29.37;;;;;;;-150.27;100.00;61272.81;5258984;28;20101;-76
2023/01/20 04:01:06;;;;;;;49.33;28.53;;;;;;;-150.27;100.00;61272.81;5271440;28;20032;-76
2023/01/20 04:04:39;;;;;;;57.47;30.97;;;;;;;-150.27;100.00;61272.81;5261964;28;20501;-72
2023/01/20 04:08:13;;;;;;;55.33;33.50;;;;;;;-150.27;100.00;61272.81;5266509;28;20470;-76
2023/01/20 04:11:44;;;;;;;58.40;33.90;;;;;;;-150.27;100.00;61272.81;5273105;28;20398;-80
2023/01/20 04:15:15;;;;;;;48.53;31.13;;;;;;;-150.27;100.00;61272.81;5258661;28;20032;-76
2023/01/20 04:18:46;;;;;;;56.03;32.37;;;;;;;-150.27;100.00;61272.81;5260751;28;20571;-79
2023/01/20 04:22:24;;;;;;;56.80;32.63;;;;;;;-150.27;100.00;61272.81;5268898;28;20092;-74
2023/01/20 04:25:58;;;;;;;49.67;30.57;;;;;;;-150.27;100.00;61272.81;5261937;28;20069;-73
2023/01/20 04:29:28;;;;;;;52.27;31.13;;;;;;;-150.27;100.00;61272.81;5272555;28;20024;-78
2023/01/20 04:32:59;;;;;;;49.10;28.00;;;;;;;-150.27;100.00;61272.81;5259521;28;20021;-77
2023/01/20 04:36:29;;;;;;;53.40;30.60;;;;;;;-150.27;100.00;61272.81;5264745;28;20070;-77
2023/01/20 04:39:58;;;;;;;50.90;30.93;;;;;;;-150.27;100.00;61272.81;5260681;28;20088;-78
2023/01/20 04:43:28;;;;;;;55.33;30.80;;;;;;;-150.27;100.00;61272.81;5251448;28;20033;-76
2023/01/20 04:46:58;;;;;;;53.83;31.27;;;;;;;-150.27;100.00;61272.81;5264407;28;20119;-78
2023/01/20 04:50:28;;;;;;;49.13;29.13;;;;;;;-150.27;100.00;61272.81;5244145;28;20033;-77
2023/01/20 04:53:58;;;;;;;55.63;29.17;;;;;;;-150.27;100.00;61272.81;5271019;28;20020;-78
2023/01/20 04:57:28;;;;;;;49.47;29.07;;;;;;;-150.27;100.00;61272.81;5257938;28;20637;-75
2023/01/20 05:01:00;;;;;;;53.30;31.03;;;;;;;-150.27;100.00;61272.81;5256475;28;20032;-77
2023/01/20 05:04:30;;;;;;;53.13;30.97;;;;;;;-150.27;100.00;61272.81;5250943;28;20056;-78
2023/01/20 05:08:00;;;;;;;53.30;30.30;;;;;;;-150.27;100.00;61272.81;5251493;28;20813;-75
2023/01/20 05:11:30;;;;;;;57.63;32.73;;;;;;;-150.27;100.00;61272.81;5232529;28;20026;-79
2023/01/20 05:15:00;;;;;;;53.27;28.83;;;;;;;-150.27;100.00;61272.81;5233074;28;20038;-77
2023/01/20 05:18:29;;;;;;;54.83;31.57;;;;;;;-150.27;100.00;61272.81;5235165;28;20021;-78
2023/01/20 05:22:01;;;;;;;53.80;30.03;;;;;;;-150.27;100.00;61272.81;5242157;28;20029;-78
2023/01/20 05:25:30;;;;;;;58.27;31.30;;;;;;;-150.27;100.00;61272.81;5255830;28;20031;-76
2023/01/20 05:29:01;;;;;;;56.37;31.07;;;;;;;-150.27;100.00;61272.81;5257577;28;20471;-78
2023/01/20 05:32:31;;;;;;;55.30;30.03;;;;;;;-150.27;100.00;61272.81;5256932;28;20072;-73
2023/01/20 05:36:05;;;;;;;57.83;29.70;;;;;;;-150.27;100.00;61272.81;5254938;28;20044;-75
2023/01/20 05:39:35;;;;;;;57.10;29.50;;;;;;;-150.27;100.00;61272.81;5257532;28;20043;-76
2023/01/20 05:43:05;;;;;;;51.60;28.43;;;;;;;-150.27;100.00;61272.81;5265904;28;20029;-78
2023/01/20 05:46:34;;;;;;;50.87;28.30;;;;;;;-150.27;100.00;61272.81;5276059;28;20036;-77
2023/01/20 05:50:04;;;;;;;55.37;31.37;;;;;;;-150.27;100.00;61272.81;5274314;28;20024;-76
2023/01/20 05:53:34;;;;;;;53.87;29.03;;;;;;;-150.27;100.00;61272.81;5257605;28;20036;-78
2023/01/20 05:57:04;;;;;;;55.83;30.47;;;;;;;-150.27;100.00;61272.81;5276037;28;20051;-75
2023/01/20 06:00:34;;;;;;;45.17;27.57;;;;;;;-150.27;100.00;61272.81;5264294;28;20474;-77
2023/01/20 06:04:04;;;;;;;49.07;29.23;;;;;;;-150.27;100.00;61272.81;5254834;28;20032;-78
2023/01/20 06:07:34;;;;;;;53.87;25.87;;;;;;;-150.27;100.00;61272.81;5262224;28;20029;-74
2023/01/20 06:11:04;;;;;;;52.50;28.27;;;;;;;-150.27;100.00;61272.81;5247859;28;20041;-78
2023/01/20 06:14:34;;;;;;;52.47;31.27;;;;;;;-150.27;100.00;61272.81;5254408;28;20039;-77
2023/01/20 06:18:04;;;;;;;49.83;29.17;;;;;;;-150.27;100.00;61272.81;5253125;28;20029;-78
2023/01/20 06:21:34;;;;;;;50.27;28.07;;;;;;;-150.27;100.00;61272.81;5253341;28;20437;-75
2023/01/20 06:25:04;;;;;;;61.03;28.33;;;;;;;-150.27;100.00;61272.81;5253831;28;20071;-76
2023/01/20 06:28:37;;;;;;;46.03;26.60;;;;;;;-150.27;100.00;61272.81;5233228;28;20115;-78
2023/01/20 06:32:09;;;;;;;46.67;26.97;;;;;;;-150.27;100.00;61272.81;5244283;28;20020;-72
2023/01/20 06:35:39;;;;;;;52.27;28.70;;;;;;;-150.27;100.00;61272.81;5259084;28;20040;-78
2023/01/20 06:39:09;;;;;;;52.17;28.27;;;;;;;-150.27;100.00;61272.81;5261128;28;20021;-76
2023/01/20 06:42:38;;;;;;;54.07;28.57;;;;;;;-150.27;100.00;61272.81;5254253;28;20037;-78
2023/01/20 06:46:10;;;;;;;53.43;27.93;;;;;;;-150.27;100.00;61272.81;5269416;28;20032;-75
2023/01/20 06:49:40;;;;;;;46.93;27.87;;;;;;;-150.27;100.00;61272.81;5268820;28;20080;-75
2023/01/20 06:53:10;;;;;;;58.80;29.20;;;;;;;-150.27;100.00;61272.81;5231861;28;20475;-76
2023/01/20 06:56:40;;;;;;;49.87;26.00;;;;;;;-150.27;100.00;61272.81;5252450;28;20024;-74
2023/01/20 07:00:10;;;;;;;46.87;26.17;;;;;;;-150.27;100.00;61272.81;5255740;28;20517;-80
2023/01/20 07:03:42;;;;;;;45.67;27.30;;;;;;;-150.27;100.00;61272.81;5272798;28;20566;-79
2023/01/20 07:07:17;;;;;;;50.17;28.57;;;;;;;-150.27;100.00;61272.81;5237414;28;20090;-78
2023/01/20 07:10:47;;;;;;;44.97;26.17;;;;;;;-150.27;100.00;61272.81;5258468;28;20064;-76
2023/01/20 07:14:17;;;;;;;47.57;26.23;;;;;;;-150.27;100.00;61272.81;5251968;28;20029;-78
2023/01/20 07:17:46;;;;;;;48.90;27.83;;;;;;;-150.27;100.00;61272.81;5253469;28;20445;-79
2023/01/20 07:21:17;;;;;;;48.83;27.20;;;;;;;-150.27;100.00;61272.81;5252470;28;20035;-74
2023/01/20 07:24:47;;;;;;;45.37;26.00;;;;;;;-150.27;100.00;61272.81;5252911;28;20071;-83
2023/01/20 07:28:17;;;;;;;51.53;26.70;;;;;;;-150.27;100.00;61272.81;5253737;28;20044;-79
2023/01/20 07:32:02;;;;;;;50.80;27.80;;;;;;;-150.27;100.00;61272.81;5224302;28;20056;-75
2023/01/20 07:34:33;;;;;;;49.83;30.07;;;;;;;0.23;100.00;101185.53;5262902;28;20078;-78
2023/01/20 07:37:05;;;;;;;44.30;26.90;;;;;;;0.12;100.00;101184.78;5252791;28;20217;-80
2023/01/20 07:39:36;;;;;;;46.07;27.53;;;;;;;0.04;100.00;101190.00;5253946;28;20434;-81
2023/01/20 07:42:07;;;;;;;47.97;28.60;;;;;;;0.07;100.00;101202.03;5254870;28;20080;-87
2023/01/20 07:44:39;;;;;;;58.90;30.10;;;;;;;0.05;100.00;101203.75;5254605;28;20625;-75
2023/01/20 07:47:10;;;;;;;46.90;28.80;;;;;;;0.01;100.00;101199.50;5267212;28;20029;-89
2023/01/20 07:49:41;;;;;;;44.93;29.83;;;;;;;0.03;100.00;101197.75;5266260;28;20029;-76
2023/01/20 07:52:31;;;;;;;42.70;27.07;;;;;;;0.03;100.00;101197.75;5254970;28;20025;-83
2023/01/20 07:55:03;;;;;;;59.07;29.27;;;;;;;0.12;100.00;101218.28;5263270;28;20483;-79
2023/01/20 07:57:34;;;;;;;46.60;27.20;;;;;;;0.06;100.00;101208.03;5262069;28;20033;-82
2023/01/20 08:00:07;;;;;;;43.13;26.53;;;;;;;0.17;100.00;101221.66;5255252;28;20694;-83
2023/01/20 08:02:38;;;;;;;49.33;26.73;;;;;;;0.19;100.00;101214.75;5262006;28;20032;-77
2023/01/20 08:05:10;;;;;;;50.90;27.80;;;;;;;0.12;100.00;101213.13;5264148;28;20025;-84
2023/01/20 08:07:41;;;;;;;42.60;26.80;;;;;;;0.15;100.00;101210.53;5258460;28;20031;-77
2023/01/20 08:10:12;;;;;;;42.97;27.63;;;;;;;0.19;100.00;101219.91;5253456;28;20073;-73
2023/01/20 08:12:44;;;;;;;45.10;26.70;;;;;;;0.19;100.00;101212.16;5254941;28;20063;-78
2023/01/20 08:15:15;;;;;;;41.70;27.10;;;;;;;0.19;100.00;101225.06;5254714;28;20088;-79
2023/01/20 08:17:46;;;;;;;45.40;27.97;;;;;;;0.17;100.00;101221.66;5251509;28;20744;-81
2023/01/20 08:20:18;;;;;;;43.50;26.03;;;;;;;0.18;100.00;101223.34;5252758;28;20498;-80
2023/01/20 08:22:49;;;;;;;45.57;28.50;;;;;;;0.13;100.00;101219.97;5251731;28;20425;-81
2023/01/20 08:25:20;;;;;;;41.63;26.60;;;;;;;0.08;100.00;101222.59;5251183;28;20367;-82
2023/01/20 08:27:51;;;;;;;46.03;27.27;;;;;;;0.14;100.00;101231.97;5251763;28;20040;-74
2023/01/20 08:30:23;;;;;;;45.53;27.23;;;;;;;0.07;100.00;101223.47;5251540;28;20025;-79
2023/01/20 08:32:55;;;;;;;39.47;25.43;;;;;;;-0.01;100.00;101227.84;5251299;28;20029;-83
2023/01/20 08:35:26;;;;;;;38.43;24.37;;;;;;;0.11;100.00;101227.72;5251849;28;20383;-79
2023/01/20 08:37:57;;;;;;;37.40;23.73;;;;;;;0.13;100.00;101230.28;5250928;28;20029;-82
2023/01/20 08:40:28;;;;;;;36.07;23.03;;;;;;;0.07;100.00;101230.34;5253052;28;20025;-79
2023/01/20 08:43:00;;;;;;;41.03;23.20;;;;;;;0.12;100.00;101228.59;5253617;28;20031;-75
2023/01/20 08:45:31;;;;;;;36.87;23.70;;;;;;;0.08;100.00;101217.47;5251423;28;20089;-82
2023/01/20 08:48:03;;;;;;;36.90;23.87;;;;;;;0.21;100.00;101238.78;5248050;28;20559;-77
2023/01/20 08:50:34;;;;;;;32.87;21.53;;;;;;;0.10;100.00;101225.16;5250697;28;20025;-81
2023/01/20 08:53:06;;;;;;;35.23;23.60;;;;;;;0.08;100.00;101221.75;5251559;28;20031;-80
2023/01/20 08:55:37;;;;;;;34.17;22.63;;;;;;;0.16;100.00;101222.50;5251570;28;20109;-78
2023/01/20 08:58:08;;;;;;;33.10;21.63;;;;;;;0.11;100.00;101232.00;5236902;28;20034;-78
2023/01/20 09:00:40;;;;;;;35.17;21.90;;;;;;;0.17;100.00;101231.97;5228969;28;20075;-76
2023/01/20 09:03:11;;;;;;;35.27;22.27;;;;;;;0.22;100.00;101243.09;5243092;28;20032;-80
2023/01/20 09:05:43;;;;;;;35.77;23.83;;;;;;;0.09;100.00;101242.34;5251491;28;20578;-79
2023/01/20 09:08:16;;;;;;;32.83;21.83;;;;;;;0.13;100.00;101243.16;5250403;28;20108;-78
2023/01/20 09:10:47;;;;;;;31.10;23.30;;;;;;;0.06;100.00;101242.38;5251293;28;20103;-84
2023/01/20 09:13:18;;;;;;;38.10;23.87;;;;;;;-0.03;100.00;101245.88;5251952;28;20021;-79
2023/01/20 09:15:51;;;;;;;36.80;23.70;;;;;;;0.14;100.00;101241.44;5251506;28;20024;-74
2023/01/20 09:18:22;;;;;;;36.70;24.00;;;;;;;0.06;100.00;101241.50;5250528;28;20491;-83
2023/01/20 09:20:56;;;;;;;35.67;23.37;;;;;;;0.06;100.00;101236.34;5250177;28;20048;-75
2023/01/20 09:23:27;;;;;;;32.03;22.27;;;;;;;0.10;100.00;101250.91;5251830;28;20029;-79
2023/01/20 09:26:00;;;;;;;34.50;23.47;;;;;;;0.02;100.00;101232.13;5261434;28;20033;-76
2023/01/20 09:28:32;;;;;;;38.40;24.50;;;;;;;0.15;100.00;101249.16;5249971;28;20041;-81
2023/01/20 09:31:07;;;;;;;36.43;24.40;;;;;;;0.10;100.00;101245.78;5247924;28;20120;-73
2023/01/20 09:33:39;;;;;;;37.77;26.57;;;;;;;-0.13;100.00;101246.81;5250035;28;20029;-76
2023/01/20 09:36:10;;;;;;;37.57;23.77;;;;;;;-0.10;100.00;101254.53;5257416;28;20035;-75
2023/01/20 09:44:36;;;;;;;35.27;23.80;;;;;;;-0.03;100.00;101260.47;5235236;28;20037;-75
2023/01/20 09:47:40;;;;;;;34.83;23.83;;;;;;;-0.03;100.00;101266.47;5256976;28;20402;-73
2023/01/20 09:53:58;;;;;;;33.83;23.73;;;;;;;0.09;100.00;101273.25;5248990;28;20040;-73
2023/01/20 09:56:32;;;;;;;31.00;22.02;;;;;;;0.01;100.00;101269.88;5245473;28;20132;-79
2023/01/20 09:59:12;;;;;;;30.13;21.55;;;;;;;0.07;100.00;101272.41;5256396;28;20029;-74
2023/01/20 10:02:10;;;;;;;30.60;20.57;;;;;;;0.13;100.00;101261.19;5251283;28;20040;-76
2023/01/20 10:04:47;;;;;;;28.07;19.27;;;;;;;0.13;100.00;101260.31;5256008;28;20138;-76
2023/01/20 10:07:27;;;;;;;28.67;20.13;;;;;;;0.16;100.00;101258.56;5270451;28;20483;-74
2023/01/20 10:10:10;;;;;;;28.73;19.03;;;;;;;0.14;100.00;101251.75;5267807;28;20020;-75
2023/01/20 10:12:49;;;;;;;25.67;18.07;;;;;;;0.08;100.00;101252.66;5235744;28;20132;-77
2023/01/20 10:15:26;;;;;;;29.70;18.43;;;;;;;-0.04;100.00;101251.91;5240848;28;20546;-80
2023/01/20 10:18:16;;;;;;;24.30;17.60;;;;;;;0.07;100.00;101248.38;5247277;28;20029;-76
2023/01/20 10:21:11;;;;;;;25.73;18.30;;;;;;;0.15;100.00;101254.31;5252228;28;20195;-77
2023/01/20 10:23:49;;;;;;;24.52;16.83;;;;;;;0.17;100.00;101262.88;5252005;28;20124;-74
2023/01/20 10:26:28;;;;;;;24.60;17.50;;;;;;;0.10;100.00;101256.06;5253959;28;20061;-75
2023/01/20 10:29:02;;;;;;;25.47;18.77;;;;;;;0.05;100.00;101255.25;5251695;28;20108;-75
2023/01/20 10:31:43;;;;;;;18.67;13.82;;;;;;;0.13;100.00;101256.03;5255214;28;20028;-75
2023/01/20 10:34:18;;;;;;;21.33;16.20;;;;;;;0.10;100.00;101246.63;5255372;28;20052;-74
2023/01/20 10:36:59;;;;;;;23.57;15.97;;;;;;;0.06;100.00;101239.78;5253638;28;20395;-74
2023/01/20 10:39:43;;;;;;;20.13;15.50;;;;;;;0.16;100.00;101253.44;5251677;28;20391;-76
2023/01/20 10:42:17;;;;;;;26.77;17.87;;;;;;;0.17;100.00;101254.28;5251206;28;20044;-74
2023/01/20 10:44:49;;;;;;;21.70;16.63;;;;;;;0.05;100.00;101248.41;5255792;28;20032;-75
2023/01/20 10:47:41;;;;;;;23.43;18.13;;;;;;;0.14;100.00;101251.75;5253856;28;20284;-78
2023/01/20 10:50:28;;;;;;;26.60;19.20;;;;;;;0.19;100.00;101250.81;5252106;28;20025;-78
2023/01/20 10:53:20;;;;;;;23.10;16.87;;;;;;;0.24;100.00;101248.22;5256394;28;20025;-71
2023/01/20 10:56:29;;;;;;;21.33;15.77;;;;;;;0.26;100.00;101249.06;5248768;28;20033;-74
2023/01/20 10:59:08;;;;;;;23.63;16.83;;;;;;;-0.01;100.00;101244.16;5254107;28;20066;-73
2023/01/20 11:01:41;;;;;;;21.87;17.10;;;;;;;0.22;100.00;101245.66;5257669;28;20037;-74
2023/01/20 11:04:20;;;;;;;23.43;18.37;;;;;;;0.14;100.00;101252.59;5252904;28;20476;-75
2023/01/20 11:06:55;;;;;;;23.50;16.33;;;;;;;-0.07;100.00;101246.75;5253191;28;20033;-72
2023/01/20 11:09:36;;;;;;;24.37;18.23;;;;;;;0.03;100.00;101241.53;5251377;28;20574;-76
2023/01/20 11:12:17;;;;;;;23.33;16.47;;;;;;;0.19;100.00;101255.13;5251871;28;20041;-75
2023/01/20 11:14:48;;;;;;;21.90;16.63;;;;;;;0.20;100.00;101246.53;5259065;28;20036;-75
2023/01/20 11:17:20;;;;;;;21.20;16.23;;;;;;;0.19;100.00;101250.81;5250735;28;20032;-73
2023/01/20 11:19:56;;;;;;;25.03;18.07;;;;;;;0.23;100.00;101249.06;5236757;28;20066;-73
2023/01/20 11:22:31;;;;;;;38.97;27.43;;;;;;;0.30;100.00;101255.00;5242783;28;20036;-80
2023/01/20 11:25:04;;;;;;;48.10;28.63;;;;;;;0.32;100.00;101253.28;5241466;28;20025;-75
2023/01/20 11:27:41;;;;;;;39.23;23.97;;;;;;;0.38;100.00;101258.38;5237113;28;20119;-75
2023/01/20 11:30:21;;;;;;;26.30;18.90;;;;;;;0.45;100.00;101257.44;5242262;28;20040;-72
2023/01/20 11:33:17;;;;;;;21.07;16.47;;;;;;;0.42;100.00;101246.31;5235516;28;20033;-75
2023/01/20 11:36:04;;;;;;;18.80;13.83;;;;;;;0.34;100.00;101265.28;5240447;28;20063;-76
2023/01/20 11:38:44;;;;;;;18.87;14.27;;;;;;;0.38;100.00;101250.66;5242483;28;20048;-75
2023/01/20 11:41:34;;;;;;;18.07;14.27;;;;;;;0.43;100.00;101259.19;5236512;28;20453;-78
2023/01/20 11:44:05;;;;;;;21.30;14.93;;;;;;;0.29;100.00;101268.78;5238506;28;20059;-75
2023/01/20 11:46:37;;;;;;;18.43;13.17;;;;;;;0.37;100.00;101264.38;5239062;28;20438;-75
2023/01/20 11:49:21;;;;;;;21.27;14.73;;;;;;;0.41;100.00;101265.22;5240872;28;20033;-77
2023/01/20 11:51:53;;;;;;;26.83;20.03;;;;;;;0.50;100.00;101259.97;5238811;28;20037;-78
2023/01/20 11:54:27;;;;;;;20.50;15.83;;;;;;;0.49;100.00;101247.94;5238891;28;20036;-76
2023/01/20 11:57:09;;;;;;;24.75;17.02;;;;;;;0.58;100.00;101252.13;5240934;28;20123;-79
2023/01/20 11:59:48;;;;;;;20.40;14.83;;;;;;;0.65;100.00;101255.50;5240213;28;20032;-73
2023/01/20 12:02:23;;;;;;;27.77;19.87;;;;;;;0.47;100.00;101255.69;5238652;28;20135;-85
2023/01/20 12:04:57;;;;;;;23.73;17.93;;;;;;;0.48;100.00;101253.97;5239293;28;20071;-73
2023/01/20 12:07:34;;;;;;;17.17;14.23;;;;;;;0.51;100.00;101260.84;5237007;28;20041;-77
2023/01/20 12:10:12;;;;;;;19.83;15.90;;;;;;;0.40;100.00;101253.22;5237544;28;20029;-74
2023/01/20 12:12:55;;;;;;;20.83;15.87;;;;;;;0.63;100.00;101250.34;5239653;28;20045;-82
2023/01/20 12:15:39;;;;;;;20.17;16.23;;;;;;;0.73;100.00;101256.28;5235675;28;20033;-80
2023/01/20 12:18:22;;;;;;;21.53;16.30;;;;;;;0.59;100.00;101259.03;5238084;28;20406;-75
2023/01/20 12:21:18;;;;;;;20.20;15.60;;;;;;;0.71;100.00;101261.47;5233981;28;20104;-70
2023/01/20 12:24:02;;;;;;;21.53;16.20;;;;;;;0.68;100.00;101269.22;5238246;28;20029;-84
2023/01/20 12:26:35;;;;;;;25.83;18.63;;;;;;;0.64;100.00;101267.56;5239605;28;20025;-78
2023/01/20 12:29:19;;;;;;;22.23;17.30;;;;;;;0.83;100.00;101270.78;5234855;28;20036;-77
2023/01/20 12:31:50;;;;;;;25.42;19.15;;;;;;;0.70;100.00;101271.75;5235768;28;20033;-73
2023/01/20 12:34:27;;;;;;;21.83;16.67;;;;;;;0.88;100.00;101283.59;5239597;28;20575;-77
2023/01/20 12:37:36;;;;;;;25.80;18.30;;;;;;;0.91;100.00;101265.50;5238297;28;20044;-79
2023/01/20 12:40:13;;;;;;;24.90;18.60;;;;;;;1.03;100.00;101276.56;5237126;28;20028;-74
2023/01/20 12:43:27;;;;;;;22.67;19.13;;;;;;;1.09;100.00;101279.03;5241426;28;20471;-75
2023/01/20 12:46:14;;;;;;;20.90;17.37;;;;;;;0.88;100.00;101280.16;5235491;28;20021;-73
2023/01/20 12:49:19;;;;;;;27.47;22.10;;;;;;;1.05;100.00;101290.25;5235778;28;20443;-78
2023/01/20 12:52:02;;;;;;;24.95;18.90;;;;;;;0.82;100.00;101291.44;5238761;28;20506;-73
2023/01/20 12:55:01;;;;;;;23.27;19.50;;;;;;;1.10;100.00;101297.97;5234268;28;20048;-76
2023/01/20 12:58:01;;;;;;;27.17;18.37;;;;;;;0.98;100.00;101286.91;5239739;28;20021;-74
2023/01/20 13:00:46;;;;;;;23.87;18.97;;;;;;;0.90;100.00;101297.34;5234518;28;20053;-74
2023/01/20 13:03:20;;;;;;;24.90;20.20;;;;;;;1.07;100.00;101294.53;5239004;28;20087;-74
2023/01/20 13:06:34;;;;;;;27.25;21.05;;;;;;;1.14;100.00;101302.19;5239396;28;20385;-73
2023/01/20 13:09:09;;;;;;;26.73;19.03;;;;;;;1.13;100.00;101296.19;5234992;28;20435;-73
2023/01/20 13:11:52;;;;;;;25.67;19.85;;;;;;;1.17;100.00;101295.28;5239251;28;20256;-74
2023/01/20 13:14:37;;;;;;;25.87;19.93;;;;;;;1.14;100.00;101285.00;5235287;28;20784;-73
2023/01/20 13:17:36;;;;;;;22.93;19.07;;;;;;;1.20;100.00;101296.97;5244367;28;20017;-81
2023/01/20 13:20:21;;;;;;;25.17;19.80;;;;;;;1.10;100.00;101285.06;5268040;28;20024;-81